createdAt,value
2018-06-04T00:00:29.797Z,15.87
2018-06-04T00:02:59.606Z,16.30
2018-06-04T00:05:29.456Z,15.50
2018-06-04T00:07:59.246Z,17.30
2018-06-04T00:10:29.698Z,19.20
2018-06-04T00:12:59.525Z,17.63
2018-06-04T00:15:29.316Z,19.33
2018-06-04T00:17:59.664Z,21.40
2018-06-04T00:20:29.453Z,19.80
2018-06-04T00:22:59.627Z,20.70
2018-06-04T00:25:29.408Z,19.20
2018-06-04T00:27:59.220Z,19.97
2018-06-04T00:30:29.653Z,21.30
2018-06-04T00:32:59.616Z,19.83
2018-06-04T00:35:29.168Z,19.80
2018-06-04T00:37:58.680Z,19.47
2018-06-04T00:40:28.329Z,19.53
2018-06-04T00:42:58.121Z,20.40
2018-06-04T00:45:27.924Z,18.40
2018-06-04T00:47:57.706Z,21.27
2018-06-04T00:50:27.167Z,20.70
2018-06-04T00:52:56.741Z,20.33
2018-06-04T00:55:26.529Z,21.03
2018-06-04T00:57:56.332Z,20.80
2018-06-04T01:00:27.106Z,22.10
2018-06-04T01:02:57.293Z,22.97
2018-06-04T01:05:27.501Z,24.07
2018-06-04T01:07:57.287Z,25.10
2018-06-04T01:10:27.100Z,26.47
2018-06-04T01:12:56.912Z,26.97
2018-06-04T01:15:26.698Z,27.57
2018-06-04T01:17:57.957Z,27.97
2018-06-04T01:20:27.866Z,27.10
2018-06-04T01:22:57.629Z,23.33
2018-06-04T01:25:27.396Z,24.07
2018-06-04T01:27:57.164Z,24.37
2018-06-04T01:30:26.929Z,24.80
2018-06-04T01:32:56.722Z,23.03
2018-06-04T01:35:27.501Z,23.10
2018-06-04T01:37:56.958Z,24.67
2018-06-04T01:40:26.512Z,25.40
2018-06-04T01:42:56.336Z,22.63
2018-06-04T01:45:26.123Z,22.17
2018-06-04T01:47:55.654Z,23.43
2018-06-04T01:50:25.225Z,24.67
2018-06-04T01:52:55.009Z,24.87
2018-06-04T01:55:24.810Z,23.60
2018-06-04T01:57:54.634Z,25.10
2018-06-04T02:00:24.454Z,22.60
2018-06-04T02:02:54.289Z,22.93
2018-06-04T02:05:24.064Z,23.70
2018-06-04T02:07:53.861Z,24.03
2018-06-04T02:10:23.632Z,25.40
2018-06-04T02:12:53.403Z,22.40
2018-06-04T02:15:23.192Z,24.00
2018-06-04T02:17:52.945Z,25.20
2018-06-04T02:20:23.237Z,23.80
2018-06-04T02:22:53.013Z,24.00
2018-06-04T02:25:22.846Z,21.77
2018-06-04T02:27:52.658Z,21.63
2018-06-04T02:30:22.453Z,21.07
2018-06-04T02:32:52.238Z,20.63
2018-06-04T02:35:22.052Z,19.30
2018-06-04T02:37:51.532Z,20.80
2018-06-04T02:40:21.108Z,19.00
2018-06-04T02:42:51.021Z,19.37
2018-06-04T02:45:20.810Z,19.43
2018-06-04T02:47:50.576Z,19.57
2018-06-04T02:50:21.553Z,21.00
2018-06-04T02:52:51.981Z,20.50
2018-06-04T02:55:21.749Z,22.23
2018-06-04T02:57:51.609Z,21.37
2018-06-04T03:00:21.356Z,21.97
2018-06-04T03:02:51.153Z,22.37
2018-06-04T03:05:21.533Z,21.53
2018-06-04T03:07:51.283Z,20.63
2018-06-04T03:10:21.079Z,22.13
2018-06-04T03:12:50.905Z,21.20
2018-06-04T03:15:20.754Z,20.50
2018-06-04T03:17:50.530Z,20.27
2018-06-04T03:20:20.373Z,20.57
2018-06-04T03:22:51.539Z,21.00
2018-06-04T03:25:21.285Z,21.67
2018-06-04T03:27:51.733Z,20.57
2018-06-04T03:30:21.513Z,21.03
2018-06-04T03:32:51.450Z,25.00
2018-06-04T03:35:21.248Z,25.07
2018-06-04T03:37:52.345Z,25.40
2018-06-04T03:40:22.166Z,25.70
2018-06-04T03:42:51.920Z,25.63
2018-06-04T03:45:21.718Z,26.90
2018-06-04T03:47:51.483Z,24.27
2018-06-04T03:50:21.234Z,24.80
2018-06-04T03:52:51.044Z,24.80
2018-06-04T03:55:20.962Z,23.47
2018-06-04T03:57:50.717Z,22.10
2018-06-04T04:00:20.537Z,23.07
2018-06-04T04:02:50.303Z,23.60
2018-06-04T04:05:20.127Z,23.30
2018-06-04T04:07:49.932Z,23.10
2018-06-04T04:10:19.761Z,25.40
2018-06-04T04:12:50.414Z,24.00
2018-06-04T04:15:20.181Z,23.33
2018-06-04T04:17:50.548Z,24.67
2018-06-04T04:20:20.338Z,24.43
2018-06-04T04:22:50.152Z,23.97
2018-06-04T04:25:20.541Z,22.67
2018-06-04T04:27:50.409Z,23.63
2018-06-04T04:30:20.076Z,24.00
2018-06-04T04:32:49.875Z,23.60
2018-06-04T04:35:20.317Z,24.33
2018-06-04T04:37:50.705Z,25.77
2018-06-04T04:40:20.503Z,27.57
2018-06-04T04:42:50.298Z,25.00
2018-06-04T04:45:20.129Z,27.70
2018-06-04T04:47:49.908Z,26.17
2018-06-04T04:50:20.376Z,25.70
2018-06-04T04:52:49.903Z,29.60
2018-06-04T04:55:19.489Z,29.10
2018-06-04T04:57:49.280Z,27.20
2018-06-04T05:00:19.069Z,27.00
2018-06-04T05:02:48.867Z,30.27
2018-06-04T05:05:18.666Z,33.07
2018-06-04T05:07:48.768Z,31.17
2018-06-04T05:10:18.337Z,32.10
2018-06-04T05:12:48.317Z,35.70
2018-06-04T05:15:18.159Z,34.27
2018-06-04T05:17:47.953Z,35.30
2018-06-04T05:20:17.741Z,35.10
2018-06-04T05:22:47.509Z,35.50
2018-06-04T05:25:17.805Z,42.40
2018-06-04T05:27:47.608Z,34.90
2018-06-04T05:30:17.388Z,32.70
2018-06-04T05:32:47.136Z,35.13
2018-06-04T05:35:16.940Z,34.70
2018-06-04T05:37:46.748Z,33.77
2018-06-04T05:40:16.576Z,35.00
2018-06-04T05:42:46.373Z,35.03
2018-06-04T05:45:16.172Z,36.07
2018-06-04T05:47:45.921Z,35.00
2018-06-04T05:50:15.699Z,33.50
2018-06-04T05:52:45.477Z,33.00
2018-06-04T05:55:15.259Z,32.17
2018-06-04T05:57:45.021Z,32.40
2018-06-04T06:00:14.853Z,32.80
2018-06-04T06:02:44.647Z,31.90
2018-06-04T06:05:14.477Z,33.60
2018-06-04T06:07:44.280Z,33.03
2018-06-04T06:10:14.065Z,33.57
2018-06-04T06:12:44.280Z,30.20
2018-06-04T06:15:14.488Z,32.77
2018-06-04T06:17:44.384Z,32.00
2018-06-04T06:20:14.848Z,33.53
2018-06-04T06:22:44.640Z,31.03
2018-06-04T06:25:15.138Z,32.87
2018-06-04T06:27:45.554Z,35.10
2018-06-04T06:30:15.327Z,32.37
2018-06-04T06:32:45.201Z,33.93
2018-06-04T06:35:14.978Z,32.90
2018-06-04T06:37:44.788Z,35.63
2018-06-04T06:40:14.569Z,36.97
2018-06-04T06:42:44.387Z,36.00
2018-06-04T06:45:14.199Z,33.63
2018-06-04T06:47:44.069Z,34.73
2018-06-04T06:50:13.855Z,34.23
2018-06-04T06:52:43.635Z,33.97
2018-06-04T06:55:13.412Z,34.80
2018-06-04T06:57:43.180Z,35.80
2018-06-04T07:00:13.013Z,35.10
2018-06-04T07:02:43.395Z,34.00
2018-06-04T07:05:13.201Z,34.00
2018-06-04T07:07:43.401Z,32.27
2018-06-04T07:10:13.210Z,33.60
2018-06-04T07:12:43.122Z,31.93
2018-06-04T07:15:12.936Z,31.73
2018-06-04T07:17:42.753Z,32.43
2018-06-04T07:20:12.517Z,31.50
2018-06-04T07:22:42.349Z,30.87
2018-06-04T07:25:12.116Z,29.80
2018-06-04T07:27:41.920Z,29.97
2018-06-04T07:30:11.393Z,28.90
2018-06-04T07:32:40.973Z,27.07
2018-06-04T07:35:10.775Z,30.47
2018-06-04T07:37:41.151Z,26.57
2018-06-04T07:40:11.676Z,27.03
2018-06-04T07:42:41.452Z,28.10
2018-06-04T07:45:12.241Z,29.30
2018-06-04T07:47:42.003Z,28.27
2018-06-04T07:50:15.851Z,29.57
2018-06-04T07:52:45.606Z,28.77
2018-06-04T07:55:15.843Z,28.60
2018-06-04T07:57:46.370Z,26.80
2018-06-04T08:00:16.959Z,28.33
2018-06-04T08:02:46.767Z,27.27
2018-06-04T08:05:16.574Z,27.50
2018-06-04T08:07:46.376Z,26.90
2018-06-04T08:10:16.225Z,27.03
2018-06-04T08:12:45.993Z,27.57
2018-06-04T08:15:15.759Z,25.37
2018-06-04T08:17:45.570Z,27.20
2018-06-04T08:20:15.343Z,24.70
2018-06-04T08:22:45.226Z,23.00
2018-06-04T08:25:15.004Z,24.73
2018-06-04T08:27:45.048Z,25.97
2018-06-04T08:30:14.838Z,25.63
2018-06-04T08:32:45.377Z,23.10
2018-06-04T08:35:15.165Z,22.10
2018-06-04T08:37:44.981Z,22.03
2018-06-04T08:40:14.946Z,18.63
2018-06-04T08:42:44.708Z,22.83
2018-06-04T08:45:14.469Z,22.70
2018-06-04T08:47:44.877Z,23.80
2018-06-04T08:50:14.632Z,21.60
2018-06-04T08:52:44.433Z,23.50
2018-06-04T08:55:14.310Z,22.70
2018-06-04T08:57:44.124Z,20.13
2018-06-04T09:00:13.927Z,20.07
2018-06-04T09:02:44.318Z,19.17
2018-06-04T09:05:14.121Z,16.97
2018-06-04T09:07:43.929Z,15.50
2018-06-04T09:10:13.732Z,13.43
2018-06-04T09:12:43.516Z,15.00
2018-06-04T09:15:13.341Z,16.27
2018-06-04T09:17:43.110Z,12.03
2018-06-04T09:20:12.944Z,13.67
2018-06-04T09:22:42.733Z,13.73
2018-06-04T09:25:12.594Z,16.73
2018-06-04T09:27:42.391Z,16.87
2018-06-04T09:30:12.218Z,17.90
2018-06-04T09:32:42.422Z,16.50
2018-06-04T09:35:12.200Z,20.23
2018-06-04T09:37:42.054Z,19.50
2018-06-04T09:40:11.556Z,20.10
2018-06-04T09:42:41.179Z,17.37
2018-06-04T09:45:10.940Z,19.23
2018-06-04T09:47:40.750Z,20.37
2018-06-04T09:50:10.583Z,16.10
2018-06-04T09:52:40.406Z,13.80
2018-06-04T09:55:10.243Z,16.53
2018-06-04T09:57:40.060Z,15.37
2018-06-04T10:00:09.944Z,16.33
2018-06-04T10:02:39.713Z,15.80
2018-06-04T10:05:09.532Z,16.17
2018-06-04T10:07:39.295Z,16.40
2018-06-04T10:10:09.121Z,18.20
2018-06-04T10:12:38.939Z,20.17
2018-06-04T10:15:08.451Z,20.63
2018-06-04T10:17:38.008Z,20.73
2018-06-04T10:20:07.845Z,19.17
2018-06-04T10:22:37.708Z,19.57
2018-06-04T10:25:08.132Z,22.50
2018-06-04T10:27:37.912Z,19.37
2018-06-04T10:30:07.777Z,21.80
2018-06-04T10:32:37.576Z,19.43
2018-06-04T10:35:07.603Z,21.40
2018-06-04T10:37:37.449Z,20.00
2018-06-04T10:40:07.310Z,20.20
2018-06-04T10:42:37.264Z,19.07
2018-06-04T10:45:08.345Z,18.30
2018-06-04T10:47:41.350Z,19.60
2018-06-04T10:50:11.681Z,19.60
2018-06-04T10:52:41.463Z,19.40
2018-06-04T10:55:10.931Z,18.57
2018-06-04T10:57:41.041Z,19.93
2018-06-04T11:00:10.944Z,18.57
2018-06-04T11:02:40.772Z,18.57
2018-06-04T11:05:10.588Z,17.40
2018-06-04T11:07:40.385Z,17.10
2018-06-04T11:10:10.197Z,19.77
2018-06-04T11:12:40.689Z,17.50
2018-06-04T11:15:10.480Z,17.57
2018-06-04T11:17:40.264Z,15.43
2018-06-04T11:20:10.068Z,15.53
2018-06-04T11:22:39.856Z,18.80
2018-06-04T11:25:09.689Z,18.23
2018-06-04T11:27:39.546Z,15.57
2018-06-04T11:30:09.827Z,15.10
2018-06-04T11:32:39.678Z,16.60
2018-06-04T11:35:09.557Z,15.90
2018-06-04T11:37:39.364Z,16.80
2018-06-04T11:40:09.152Z,16.53
2018-06-04T11:42:38.992Z,15.87
2018-06-04T11:45:08.784Z,15.80
2018-06-04T11:47:40.336Z,14.60
2018-06-04T11:50:10.158Z,12.67
2018-06-04T11:52:40.042Z,16.73
2018-06-04T11:55:09.818Z,14.30
2018-06-04T11:57:39.613Z,13.70
2018-06-04T12:00:10.337Z,13.33
2018-06-04T12:02:40.259Z,12.63
2018-06-04T12:05:10.141Z,12.80
2018-06-04T12:07:40.284Z,11.20
2018-06-04T12:10:10.141Z,13.10
2018-06-04T12:12:40.496Z,14.70
2018-06-04T12:15:09.967Z,13.93
2018-06-04T12:17:39.536Z,14.73
2018-06-04T12:20:09.335Z,14.60
2018-06-04T12:22:39.107Z,12.20
2018-06-04T12:25:10.227Z,11.27
2018-06-04T12:27:40.542Z,12.57
2018-06-04T12:30:10.047Z,12.33
2018-06-04T12:32:39.597Z,12.67
2018-06-04T12:35:09.600Z,14.43
2018-06-04T12:37:39.401Z,13.53
2018-06-04T12:40:09.227Z,13.50
2018-06-04T12:42:39.028Z,12.17
2018-06-04T12:45:08.865Z,12.40
2018-06-04T12:47:38.656Z,13.33
2018-06-04T12:50:08.251Z,11.77
2018-06-04T12:52:38.560Z,15.80
2018-06-04T12:55:08.382Z,13.17
2018-06-04T12:57:41.043Z,14.40
2018-06-04T13:00:10.938Z,12.83
2018-06-04T13:02:40.534Z,11.90
2018-06-04T13:05:11.322Z,12.20
2018-06-04T13:07:41.092Z,10.40
2018-06-04T13:10:10.937Z,11.07
2018-06-04T13:12:40.749Z,11.13
2018-06-04T13:15:11.005Z,10.80
2018-06-04T13:17:40.895Z,9.37
2018-06-04T13:20:10.719Z,12.87
2018-06-04T13:22:41.640Z,11.93
2018-06-04T13:25:12.146Z,17.77
2018-06-04T13:27:42.046Z,20.07
2018-06-04T13:30:11.815Z,19.67
2018-06-04T13:32:41.632Z,16.67
2018-06-04T13:35:11.400Z,19.33
2018-06-04T13:37:40.940Z,19.37
2018-06-04T13:40:10.296Z,20.73
2018-06-04T13:42:39.906Z,19.83
2018-06-04T13:45:10.069Z,18.20
2018-06-04T13:47:39.924Z,20.90
2018-06-04T13:50:09.796Z,22.10
2018-06-04T13:52:39.628Z,22.57
2018-06-04T13:55:09.460Z,21.83
2018-06-04T13:57:39.285Z,18.80
2018-06-04T14:00:10.540Z,21.47
2018-06-04T14:02:40.560Z,23.00
2018-06-04T14:05:10.147Z,22.63
2018-06-04T14:07:39.989Z,23.23
2018-06-04T14:10:09.792Z,23.60
2018-06-04T14:12:39.320Z,25.77
2018-06-04T14:15:09.605Z,22.60
2018-06-04T14:17:39.420Z,26.27
2018-06-04T14:20:09.259Z,21.77
2018-06-04T14:22:39.700Z,24.23
2018-06-04T14:25:10.416Z,24.40
2018-06-04T14:27:40.167Z,21.67
2018-06-04T14:30:10.899Z,21.67
2018-06-04T14:32:40.681Z,26.77
2018-06-04T14:35:10.183Z,24.50
2018-06-04T14:37:39.755Z,23.50
2018-06-04T14:40:09.625Z,22.10
2018-06-04T14:42:40.471Z,22.80
2018-06-04T14:45:09.792Z,22.37
2018-06-04T14:47:40.014Z,21.03
2018-06-04T14:50:09.861Z,21.00
2018-06-04T14:52:39.651Z,26.37
2018-06-04T14:55:10.066Z,22.93
2018-06-04T14:57:39.883Z,19.13
2018-06-04T15:00:09.700Z,23.10
2018-06-04T15:02:39.979Z,22.27
2018-06-04T15:05:09.944Z,23.20
2018-06-04T15:07:39.829Z,22.77
2018-06-04T15:10:09.626Z,22.57
2018-06-04T15:12:39.452Z,22.83
2018-06-04T15:15:09.258Z,21.97
2018-06-04T15:17:40.412Z,21.73
2018-06-04T15:20:10.282Z,20.93
2018-06-04T15:22:39.836Z,22.20
2018-06-04T15:25:09.412Z,20.70
2018-06-04T15:27:39.258Z,20.07
2018-06-04T15:30:09.203Z,17.90
2018-06-04T15:32:39.101Z,20.77
2018-06-04T15:35:08.927Z,23.83
2018-06-04T15:37:38.811Z,19.97
2018-06-04T15:40:08.698Z,21.07
2018-06-04T15:42:38.559Z,22.30
2018-06-04T15:45:08.691Z,19.90
2018-06-04T15:47:38.412Z,22.27
2018-06-04T15:50:08.293Z,20.00
2018-06-04T15:52:38.187Z,22.23
2018-06-04T15:55:08.341Z,22.03
2018-06-04T15:57:38.780Z,20.53
2018-06-04T16:00:08.684Z,22.23
2018-06-04T16:02:38.538Z,20.67
2018-06-04T16:05:08.880Z,23.77
2018-06-04T16:07:38.791Z,22.33
2018-06-04T16:10:09.461Z,25.33
2018-06-04T16:12:39.612Z,24.30
2018-06-04T16:15:09.664Z,24.93
2018-06-04T16:17:39.490Z,22.30
2018-06-04T16:20:09.389Z,23.60
2018-06-04T16:22:39.304Z,23.10
2018-06-04T16:25:09.137Z,22.07
2018-06-04T16:27:39.661Z,23.33
2018-06-04T16:30:09.611Z,20.50
2018-06-04T16:32:40.010Z,23.50
2018-06-04T16:35:09.890Z,22.30
2018-06-04T16:37:39.717Z,21.27
2018-06-04T16:40:09.568Z,20.90
2018-06-04T16:42:39.361Z,21.93
2018-06-04T16:45:09.329Z,17.30
2018-06-04T16:47:39.121Z,20.43
2018-06-04T16:50:09.001Z,21.27
2018-06-04T16:52:38.864Z,18.20
2018-06-04T16:55:08.752Z,19.37
2018-06-04T16:57:38.567Z,18.50
2018-06-04T17:00:08.472Z,18.93
2018-06-04T17:02:38.881Z,16.53
2018-06-04T17:05:08.744Z,18.00
2018-06-04T17:07:38.566Z,16.03
2018-06-04T17:10:08.412Z,17.03
2018-06-04T17:12:38.273Z,14.53
2018-06-04T17:15:09.911Z,19.07
2018-06-04T17:17:39.733Z,18.47
2018-06-04T17:20:09.618Z,18.20
2018-06-04T17:22:39.439Z,17.60
2018-06-04T17:25:09.900Z,16.30
2018-06-04T17:27:40.317Z,16.30
2018-06-04T17:30:10.157Z,15.87
2018-06-04T17:32:40.141Z,16.70
2018-06-04T17:35:09.953Z,14.60
2018-06-04T17:37:39.844Z,15.57
2018-06-04T17:40:09.666Z,15.27
2018-06-04T17:42:39.491Z,15.33
2018-06-04T17:45:09.673Z,13.50
2018-06-04T17:47:39.494Z,15.20
2018-06-04T17:50:09.961Z,15.10
2018-06-04T17:52:40.756Z,13.90
2018-06-04T17:55:10.602Z,18.33
2018-06-04T17:57:40.112Z,15.73
2018-06-04T18:00:09.774Z,16.53
2018-06-04T18:02:39.617Z,16.47
2018-06-04T18:05:09.456Z,16.27
2018-06-04T18:07:39.261Z,17.07
2018-06-04T18:10:09.130Z,16.77
2018-06-04T18:12:38.979Z,16.13
2018-06-04T18:15:08.841Z,16.90
2018-06-04T18:17:38.791Z,15.63
2018-06-04T18:20:09.609Z,16.47
2018-06-04T18:22:39.440Z,16.47
2018-06-04T18:25:09.283Z,18.97
2018-06-04T18:27:39.091Z,17.33
2018-06-04T18:30:08.894Z,17.27
2018-06-04T18:32:38.810Z,18.00
2018-06-04T18:35:08.650Z,18.27
2018-06-04T18:37:38.476Z,15.87
2018-06-04T18:40:08.352Z,16.60
2018-06-04T18:42:38.876Z,17.20
2018-06-04T18:45:09.025Z,17.50
2018-06-04T18:47:38.957Z,16.10
2018-06-04T18:50:08.791Z,15.87
2018-06-04T18:52:39.316Z,16.63
2018-06-04T18:55:09.308Z,15.67
2018-06-04T18:57:38.841Z,16.57
2018-06-04T19:00:09.024Z,16.07
2018-06-04T19:02:39.481Z,15.80
2018-06-04T19:05:09.602Z,16.30
2018-06-04T19:07:43.985Z,17.13
2018-06-04T19:10:14.903Z,16.80
2018-06-04T19:12:47.681Z,16.90
2018-06-04T19:15:19.340Z,16.90
2018-06-04T19:17:50.985Z,18.27
2018-06-04T19:20:21.104Z,17.60
2018-06-04T19:22:52.520Z,17.20
2018-06-04T19:25:23.259Z,17.03
2018-06-04T19:27:54.625Z,18.90
2018-06-04T19:30:25.201Z,18.53
2018-06-04T19:32:56.782Z,16.03
2018-06-04T19:35:27.617Z,16.33
2018-06-04T19:37:58.878Z,19.70
2018-06-04T19:40:37.454Z,17.50
2018-06-04T19:43:10.364Z,17.97
2018-06-04T19:45:42.339Z,18.43
2018-06-04T19:48:15.164Z,17.00
2018-06-04T19:50:46.971Z,18.27
2018-06-04T19:53:18.144Z,19.07
2018-06-04T19:55:48.642Z,19.10
2018-06-04T19:58:20.978Z,18.23
2018-06-04T20:00:53.528Z,20.37
2018-06-04T20:03:25.755Z,18.00
2018-06-04T20:05:56.719Z,18.67
2018-06-04T20:08:27.750Z,18.77
2018-06-04T20:10:58.823Z,20.40
2018-06-04T20:13:30.319Z,21.87
2018-06-04T20:16:01.433Z,18.50
2018-06-04T20:18:33.345Z,18.93
2018-06-04T20:21:04.766Z,18.33
2018-06-04T20:23:36.490Z,17.23
2018-06-04T20:26:06.825Z,18.67
2018-06-04T20:28:38.925Z,19.60
2018-06-04T20:31:09.916Z,18.50
2018-06-04T20:33:42.117Z,19.27
2018-06-04T20:36:16.574Z,19.60
2018-06-04T20:38:48.089Z,19.63
2018-06-04T20:41:19.826Z,18.17
2018-06-04T20:43:51.592Z,18.70
2018-06-04T20:46:22.508Z,20.40
2018-06-04T20:48:52.458Z,18.30
2018-06-04T20:51:22.570Z,20.03
2018-06-04T20:53:53.969Z,20.13
2018-06-04T20:56:24.769Z,20.80
2018-06-04T20:58:56.138Z,19.63
2018-06-04T21:01:26.894Z,18.63
2018-06-04T21:17:01.965Z,19.60
2018-06-04T21:19:31.813Z,18.90
2018-06-04T21:22:01.645Z,17.80
2018-06-04T21:24:31.988Z,17.00
2018-06-04T21:27:04.292Z,19.10
2018-06-04T21:29:34.076Z,18.90
2018-06-04T21:32:04.122Z,19.47
2018-06-04T21:34:33.911Z,18.87
2018-06-04T21:37:03.800Z,19.63
2018-06-04T21:39:33.736Z,19.63
2018-06-04T21:42:04.272Z,19.97
2018-06-04T21:44:34.064Z,21.93
2018-06-04T21:47:03.897Z,21.60
2018-06-04T21:49:33.720Z,21.90
2018-06-04T21:52:04.318Z,21.60
2018-06-04T21:54:33.819Z,20.20
2018-06-04T21:57:04.051Z,21.83
2018-06-04T21:59:33.864Z,21.43
2018-06-04T22:02:03.785Z,20.47
2018-06-04T22:04:34.197Z,21.33
2018-06-04T22:07:04.067Z,20.37
2018-06-04T22:09:33.851Z,20.80
2018-06-04T22:12:04.319Z,20.80
2018-06-04T22:14:34.210Z,20.57
2018-06-04T22:17:04.264Z,21.40
2018-06-04T22:19:34.105Z,20.93
2018-06-04T22:22:04.699Z,20.20
2018-06-04T22:24:34.532Z,20.90
2018-06-04T22:27:04.369Z,21.57
2018-06-04T22:29:34.277Z,20.50
2018-06-04T22:32:04.713Z,22.63
2018-06-04T22:34:34.179Z,22.57
2018-06-04T22:37:04.159Z,21.73
2018-06-04T22:39:34.009Z,23.00
2018-06-04T22:42:03.868Z,23.70
2018-06-04T22:44:33.380Z,23.07
2018-06-04T22:47:03.695Z,24.50
2018-06-04T22:49:33.157Z,24.23
2018-06-04T22:52:02.767Z,23.80
2018-06-04T22:54:32.572Z,25.43
2018-06-04T22:57:02.507Z,24.63
2018-06-04T22:59:32.276Z,24.03
2018-06-04T23:02:02.688Z,25.00
2018-06-04T23:04:32.481Z,26.30
2018-06-04T23:07:02.325Z,25.10
2018-06-04T23:09:32.098Z,26.63
2018-06-04T23:12:01.953Z,27.27
2018-06-04T23:14:31.780Z,26.30
2018-06-04T23:17:01.556Z,27.30
2018-06-04T23:19:31.337Z,27.57
2018-06-04T23:22:01.192Z,25.83
2018-06-04T23:24:30.953Z,28.30
2018-06-04T23:27:00.737Z,28.17
2018-06-04T23:29:31.064Z,28.07
2018-06-04T23:32:00.845Z,26.27
2018-06-04T23:34:30.655Z,29.33
2018-06-04T23:37:00.531Z,27.17
2018-06-04T23:39:30.410Z,29.37
2018-06-04T23:42:00.196Z,27.20
2018-06-04T23:44:29.967Z,28.87
2018-06-04T23:46:59.777Z,26.90
2018-06-04T23:49:29.244Z,29.40
2018-06-04T23:51:58.852Z,30.40
2018-06-04T23:54:28.650Z,29.80
2018-06-04T23:56:58.464Z,31.60
2018-06-04T23:59:28.827Z,29.60
